createdAt,value
2019-04-12T00:00:44.142Z,966.58
2019-04-12T00:01:44.132Z,966.54
2019-04-12T00:02:44.124Z,966.54
2019-04-12T00:03:44.117Z,966.55
2019-04-12T00:04:44.104Z,966.5
2019-04-12T00:05:44.097Z,966.48
2019-04-12T00:06:44.089Z,966.47
2019-04-12T00:07:44.079Z,966.5
2019-04-12T00:08:44.069Z,966.5
2019-04-12T00:09:44.061Z,966.47
2019-04-12T00:10:44.053Z,966.51
2019-04-12T00:11:44.044Z,966.43
2019-04-12T00:12:44.034Z,966.44
2019-04-12T00:13:44.025Z,966.5
2019-04-12T00:14:44.017Z,966.5
2019-04-12T00:15:44.332Z,966.47
2019-04-12T00:16:44.596Z,966.5
2019-04-12T00:17:44.821Z,966.42
2019-04-12T00:18:45.138Z,966.44
2019-04-12T00:19:44.383Z,966.43
2019-04-12T00:20:44.610Z,966.44
2019-04-12T00:21:45.526Z,966.49
2019-04-12T00:22:45.859Z,966.42
2019-04-12T00:23:45.653Z,966.42
2019-04-12T00:24:46.609Z,966.43
2019-04-12T00:25:47.784Z,966.44
2019-04-12T00:26:43.911Z,966.48
2019-04-12T00:27:43.901Z,966.46
2019-04-12T00:28:43.893Z,966.4
2019-04-12T00:29:43.883Z,966.45
2019-04-12T00:30:43.875Z,966.42
2019-04-12T00:31:43.866Z,966.44
2019-04-12T00:32:43.859Z,966.43
2019-04-12T00:33:43.848Z,966.46
2019-04-12T00:34:43.839Z,966.4
2019-04-12T00:35:43.831Z,966.4
2019-04-12T00:36:43.822Z,966.36
2019-04-12T00:37:43.813Z,966.41
2019-04-12T00:38:43.804Z,966.45
2019-04-12T00:39:43.795Z,966.4
2019-04-12T00:40:43.787Z,966.47
2019-04-12T00:41:43.777Z,966.5
2019-04-12T00:42:43.769Z,966.52
2019-04-12T00:43:43.760Z,966.48
2019-04-12T00:44:43.751Z,966.46
2019-04-12T00:45:43.742Z,966.46
2019-04-12T00:46:43.733Z,966.46
2019-04-12T00:47:43.723Z,966.46
2019-04-12T00:48:43.715Z,966.4
2019-04-12T00:49:43.705Z,966.48
2019-04-12T00:50:43.697Z,966.37
2019-04-12T00:51:43.688Z,966.4
2019-04-12T00:52:43.813Z,966.43
2019-04-12T00:53:45.302Z,966.38
2019-04-12T00:54:46.406Z,966.43
2019-04-12T00:55:43.651Z,966.42
2019-04-12T00:56:46.126Z,966.36
2019-04-12T00:57:46.043Z,966.38
2019-04-12T00:58:46.095Z,966.42
2019-04-12T00:59:44.980Z,966.38
2019-04-12T01:00:47.816Z,966.41
2019-04-12T01:01:43.598Z,966.45
2019-04-12T01:02:45.917Z,966.43
2019-04-12T01:03:45.750Z,966.44
2019-04-12T01:04:44.005Z,966.44
2019-04-12T01:05:43.563Z,966.4
2019-04-12T01:06:43.553Z,966.43
2019-04-12T01:07:43.546Z,966.52
2019-04-12T01:08:43.538Z,966.44
2019-04-12T01:09:43.529Z,966.49
2019-04-12T01:10:43.520Z,966.48
2019-04-12T01:11:43.510Z,966.48
2019-04-12T01:12:43.501Z,966.56
2019-04-12T01:13:43.493Z,966.47
2019-04-12T01:14:43.483Z,966.52
2019-04-12T01:15:43.474Z,966.45
2019-04-12T01:16:43.465Z,966.49
2019-04-12T01:17:43.456Z,966.45
2019-04-12T01:18:43.447Z,966.45
2019-04-12T01:19:43.454Z,966.5
2019-04-12T01:20:43.431Z,966.47
2019-04-12T01:21:43.420Z,966.46
2019-04-12T01:22:43.411Z,966.51
2019-04-12T01:23:43.402Z,966.45
2019-04-12T01:24:43.392Z,966.46
2019-04-12T01:25:44.562Z,966.53
2019-04-12T01:26:43.862Z,966.51
2019-04-12T01:27:44.941Z,966.53
2019-04-12T01:28:43.357Z,966.53
2019-04-12T01:29:43.346Z,966.53
2019-04-12T01:30:43.339Z,966.46
2019-04-12T01:31:43.331Z,966.54
2019-04-12T01:32:43.321Z,966.51
2019-04-12T01:33:43.311Z,966.55
2019-04-12T01:34:43.302Z,966.59
2019-04-12T01:35:43.294Z,966.5
2019-04-12T01:36:43.284Z,966.51
2019-04-12T01:37:43.276Z,966.53
2019-04-12T01:38:43.266Z,966.54
2019-04-12T01:39:43.257Z,966.48
2019-04-12T01:40:43.247Z,966.53
2019-04-12T01:41:43.239Z,966.54
2019-04-12T01:42:43.230Z,966.56
2019-04-12T01:43:43.221Z,966.51
2019-04-12T01:44:43.214Z,966.53
2019-04-12T01:45:43.203Z,966.52
2019-04-12T01:46:43.195Z,966.54
2019-04-12T01:47:43.184Z,966.58
2019-04-12T01:48:43.175Z,966.56
2019-04-12T01:49:43.166Z,966.53
2019-04-12T01:50:43.158Z,966.58
2019-04-12T01:51:43.151Z,966.55
2019-04-12T01:52:43.141Z,966.53
2019-04-12T01:53:43.130Z,966.55
2019-04-12T01:54:43.123Z,966.51
2019-04-12T01:55:43.114Z,966.55
2019-04-12T01:56:43.102Z,966.49
2019-04-12T01:57:43.095Z,966.46
2019-04-12T01:58:43.086Z,966.43
2019-04-12T01:59:43.076Z,966.47
2019-04-12T02:00:43.066Z,966.47
2019-04-12T02:01:43.056Z,966.49
2019-04-12T02:02:43.048Z,966.5
2019-04-12T02:03:43.040Z,966.55
2019-04-12T02:04:43.030Z,966.5
2019-04-12T02:05:43.020Z,966.49
2019-04-12T02:06:43.012Z,966.4
2019-04-12T02:07:43.002Z,966.48
2019-04-12T02:08:42.993Z,966.41
2019-04-12T02:09:42.984Z,966.5
2019-04-12T02:10:42.981Z,966.48
2019-04-12T02:11:42.967Z,966.5
2019-04-12T02:12:42.956Z,966.43
2019-04-12T02:13:42.948Z,966.46
2019-04-12T02:14:42.938Z,966.44
2019-04-12T02:15:42.930Z,966.46
2019-04-12T02:16:42.920Z,966.51
2019-04-12T02:17:42.913Z,966.48
2019-04-12T02:18:42.901Z,966.5
2019-04-12T02:19:42.901Z,966.45
2019-04-12T02:20:42.884Z,966.42
2019-04-12T02:21:42.875Z,966.47
2019-04-12T02:22:42.866Z,966.43
2019-04-12T02:23:42.856Z,966.42
2019-04-12T02:24:42.855Z,966.43
2019-04-12T02:25:42.841Z,966.44
2019-04-12T02:26:43.731Z,966.43
2019-04-12T02:27:42.819Z,966.49
2019-04-12T02:28:42.811Z,966.48
2019-04-12T02:29:42.801Z,966.53
2019-04-12T02:30:42.794Z,966.48
2019-04-12T02:31:42.791Z,966.54
2019-04-12T02:32:42.775Z,966.52
2019-04-12T02:33:42.767Z,966.52
2019-04-12T02:34:42.757Z,966.52
2019-04-12T02:35:42.751Z,966.56
2019-04-12T02:36:42.739Z,966.53
2019-04-12T02:37:42.744Z,966.55
2019-04-12T02:38:42.724Z,966.54
2019-04-12T02:39:42.716Z,966.55
2019-04-12T02:40:42.779Z,966.56
2019-04-12T02:41:42.704Z,966.59
2019-04-12T02:42:42.686Z,966.58
2019-04-12T02:43:42.684Z,966.61
2019-04-12T02:44:42.669Z,966.59
2019-04-12T02:45:42.706Z,966.67
2019-04-12T02:46:42.649Z,966.71
2019-04-12T02:47:42.683Z,966.66
2019-04-12T02:48:42.651Z,966.75
2019-04-12T02:49:42.624Z,966.77
2019-04-12T02:50:42.614Z,966.72
2019-04-12T02:51:42.604Z,966.73
2019-04-12T02:52:42.596Z,966.78
2019-04-12T02:53:42.586Z,966.78
2019-04-12T02:54:42.578Z,966.76
2019-04-12T02:55:42.569Z,966.78
2019-04-12T02:56:42.561Z,966.74
2019-04-12T02:57:42.570Z,966.76
2019-04-12T02:58:42.540Z,966.78
2019-04-12T02:59:42.536Z,966.79
2019-04-12T03:00:42.523Z,966.8
2019-04-12T03:01:42.514Z,966.82
2019-04-12T03:02:42.505Z,966.77
2019-04-12T03:03:42.492Z,966.75
2019-04-12T03:04:42.497Z,966.79
2019-04-12T03:05:42.476Z,966.81
2019-04-12T03:06:42.481Z,966.86
2019-04-12T03:07:42.458Z,966.76
2019-04-12T03:08:42.469Z,966.77
2019-04-12T03:09:42.441Z,966.75
2019-04-12T03:10:42.431Z,966.72
2019-04-12T03:11:42.421Z,966.76
2019-04-12T03:12:42.418Z,966.7
2019-04-12T03:13:42.403Z,966.68
2019-04-12T03:14:42.393Z,966.74
2019-04-12T03:15:42.387Z,966.73
2019-04-12T03:16:42.376Z,966.69
2019-04-12T03:17:42.369Z,966.71
2019-04-12T03:18:42.356Z,966.77
2019-04-12T03:19:42.352Z,966.75
2019-04-12T03:20:42.344Z,966.65
2019-04-12T03:21:42.329Z,966.76
2019-04-12T03:22:42.319Z,966.75
2019-04-12T03:23:42.310Z,966.75
2019-04-12T03:24:42.300Z,966.77
2019-04-12T03:25:52.590Z,966.8
2019-04-12T03:26:42.282Z,966.82
2019-04-12T03:27:42.276Z,966.79
2019-04-12T03:28:42.264Z,966.85
2019-04-12T03:29:42.256Z,966.84
2019-04-12T03:30:42.248Z,966.81
2019-04-12T03:31:42.237Z,966.81
2019-04-12T03:32:42.227Z,966.78
2019-04-12T03:33:42.218Z,966.82
2019-04-12T03:34:42.209Z,966.83
2019-04-12T03:35:43.772Z,966.84
2019-04-12T03:36:42.189Z,966.83
2019-04-12T03:37:42.186Z,966.84
2019-04-12T03:38:42.172Z,966.81
2019-04-12T03:39:42.164Z,966.86
2019-04-12T03:40:42.158Z,966.86
2019-04-12T03:41:42.148Z,966.86
2019-04-12T03:42:42.135Z,966.84
2019-04-12T03:43:42.125Z,966.87
2019-04-12T03:44:42.116Z,966.86
2019-04-12T03:45:42.106Z,966.85
2019-04-12T03:46:42.097Z,966.83
2019-04-12T03:47:42.091Z,966.88
2019-04-12T03:48:42.078Z,966.9
2019-04-12T03:49:42.069Z,966.87
2019-04-12T03:50:42.060Z,966.91
2019-04-12T03:51:42.050Z,966.93
2019-04-12T03:52:42.041Z,966.99
2019-04-12T03:53:42.032Z,966.95
2019-04-12T03:54:42.022Z,967.02
2019-04-12T03:55:42.021Z,966.98
2019-04-12T03:56:42.005Z,966.99
2019-04-12T03:57:41.996Z,967.01
2019-04-12T03:58:41.984Z,966.99
2019-04-12T03:59:41.975Z,967.04
2019-04-12T04:00:41.967Z,966.95
2019-04-12T04:01:41.959Z,966.99
2019-04-12T04:02:41.948Z,967.02
2019-04-12T04:03:41.939Z,967.04
2019-04-12T04:04:41.934Z,967.07
2019-04-12T04:05:41.922Z,967.01
2019-04-12T04:06:41.910Z,967.09
2019-04-12T04:07:41.902Z,967.08
2019-04-12T04:08:41.892Z,967.14
2019-04-12T04:09:41.882Z,967.08
2019-04-12T04:10:41.874Z,967.16
2019-04-12T04:11:41.864Z,967.15
2019-04-12T04:12:41.854Z,967.12
2019-04-12T04:13:41.844Z,967.15
2019-04-12T04:14:41.835Z,967.16
2019-04-12T04:15:41.926Z,967.15
2019-04-12T04:16:41.830Z,967.17
2019-04-12T04:17:41.809Z,967.19
2019-04-12T04:18:41.804Z,967.1
2019-04-12T04:19:41.790Z,967.07
2019-04-12T04:20:41.787Z,967.12
2019-04-12T04:21:41.770Z,967.1
2019-04-12T04:22:41.763Z,967.17
2019-04-12T04:23:41.751Z,967.21
2019-04-12T04:24:41.745Z,967.14
2019-04-12T04:25:41.736Z,967.16
2019-04-12T04:26:41.723Z,967.18
2019-04-12T04:27:41.726Z,967.17
2019-04-12T04:28:41.704Z,967.19
2019-04-12T04:29:41.694Z,967.21
2019-04-12T04:30:41.684Z,967.21
2019-04-12T04:31:41.674Z,967.25
2019-04-12T04:32:41.669Z,967.29
2019-04-12T04:33:41.655Z,967.29
2019-04-12T04:34:41.647Z,967.28
2019-04-12T04:35:41.644Z,967.25
2019-04-12T04:36:41.629Z,967.25
2019-04-12T04:37:41.619Z,967.27
2019-04-12T04:38:41.608Z,967.28
2019-04-12T04:39:41.607Z,967.27
2019-04-12T04:40:41.591Z,967.21
2019-04-12T04:41:41.582Z,967.23
2019-04-12T04:42:41.571Z,967.26
2019-04-12T04:43:41.575Z,967.21
2019-04-12T04:44:41.553Z,967.19
2019-04-12T04:45:41.544Z,967.23
2019-04-12T04:46:41.534Z,967.16
2019-04-12T04:47:41.529Z,967.15
2019-04-12T04:48:41.520Z,967.22
2019-04-12T04:49:41.505Z,967.23
2019-04-12T04:50:41.497Z,967.23
2019-04-12T04:51:41.487Z,967.24
2019-04-12T04:52:41.478Z,967.19
2019-04-12T04:53:41.467Z,967.28
2019-04-12T04:54:41.458Z,967.26
2019-04-12T04:55:41.449Z,967.26
2019-04-12T04:56:41.440Z,967.25
2019-04-12T04:57:41.899Z,967.25
2019-04-12T04:58:41.420Z,967.26
2019-04-12T04:59:41.411Z,967.27
2019-04-12T05:00:41.401Z,967.32
2019-04-12T05:01:41.393Z,967.31
2019-04-12T05:02:41.385Z,967.31
2019-04-12T05:03:41.374Z,967.35
2019-04-12T05:04:41.367Z,967.35
2019-04-12T05:05:41.353Z,967.41
2019-04-12T05:06:41.344Z,967.36
2019-04-12T05:07:41.334Z,967.46
2019-04-12T05:08:41.325Z,967.42
2019-04-12T05:09:41.317Z,967.41
2019-04-12T05:10:41.307Z,967.44
2019-04-12T05:11:41.296Z,967.43
2019-04-12T05:12:41.287Z,967.47
2019-04-12T05:13:41.283Z,967.5
2019-04-12T05:14:41.269Z,967.48
2019-04-12T05:15:41.258Z,967.43
2019-04-12T05:16:41.250Z,967.45
2019-04-12T05:17:41.241Z,967.5
2019-04-12T05:18:41.231Z,967.45
2019-04-12T05:19:41.221Z,967.48
2019-04-12T05:20:41.211Z,967.49
2019-04-12T05:21:41.202Z,967.5
2019-04-12T05:22:43.619Z,967.48
2019-04-12T05:23:41.182Z,967.5
2019-04-12T05:24:41.173Z,967.48
2019-04-12T05:25:41.265Z,967.47
2019-04-12T05:26:45.580Z,967.53
2019-04-12T05:27:41.145Z,967.51
2019-04-12T05:28:41.137Z,967.49
2019-04-12T05:29:41.128Z,967.52
2019-04-12T05:30:41.116Z,967.45
2019-04-12T05:31:41.109Z,967.5
2019-04-12T05:32:41.098Z,967.54
2019-04-12T05:33:41.138Z,967.53
2019-04-12T05:34:41.085Z,967.54
2019-04-12T05:35:41.069Z,967.55
2019-04-12T05:36:41.060Z,967.56
2019-04-12T05:37:41.051Z,967.56
2019-04-12T05:38:41.041Z,967.56
2019-04-12T05:39:41.033Z,967.58
2019-04-12T05:40:41.022Z,967.56
2019-04-12T05:41:41.012Z,967.57
2019-04-12T05:42:41.003Z,967.57
2019-04-12T05:43:40.993Z,967.6
2019-04-12T05:44:40.983Z,967.59
2019-04-12T05:45:40.978Z,967.58
2019-04-12T05:46:40.965Z,967.56
2019-04-12T05:47:40.960Z,967.61
2019-04-12T05:48:40.945Z,967.57
2019-04-12T05:49:40.936Z,967.6
2019-04-12T05:50:40.928Z,967.59
2019-04-12T05:51:40.918Z,967.6
2019-04-12T05:52:40.909Z,967.57
2019-04-12T05:53:40.902Z,967.55
2019-04-12T05:54:40.895Z,967.56
2019-04-12T05:55:40.881Z,967.59
2019-04-12T05:56:40.873Z,967.6
2019-04-12T05:57:40.862Z,967.57
2019-04-12T05:58:40.855Z,967.59
2019-04-12T05:59:40.843Z,967.57
2019-04-12T06:00:43.261Z,967.57
2019-04-12T06:01:40.834Z,967.56
2019-04-12T06:02:40.815Z,967.57
2019-04-12T06:03:40.805Z,967.51
2019-04-12T06:04:40.797Z,967.55
2019-04-12T06:05:40.787Z,967.52
2019-04-12T06:06:40.776Z,967.51
2019-04-12T06:07:40.767Z,967.56
2019-04-12T06:08:40.758Z,967.54
2019-04-12T06:09:40.750Z,967.53
2019-04-12T06:10:40.740Z,967.52
2019-04-12T06:11:40.730Z,967.53
2019-04-12T06:12:40.722Z,967.53
2019-04-12T06:13:40.711Z,967.55
2019-04-12T06:14:40.704Z,967.61
2019-04-12T06:15:40.692Z,967.62
2019-04-12T06:16:40.683Z,967.58
2019-04-12T06:17:40.673Z,967.61
2019-04-12T06:18:40.664Z,967.62
2019-04-12T06:19:40.657Z,967.64
2019-04-12T06:20:40.647Z,967.6
2019-04-12T06:21:40.637Z,967.61
2019-04-12T06:22:40.627Z,967.65
2019-04-12T06:23:40.618Z,967.59
2019-04-12T06:24:40.611Z,967.59
2019-04-12T06:25:40.598Z,967.63
2019-04-12T06:26:40.589Z,967.6
2019-04-12T06:27:40.582Z,967.66
2019-04-12T06:28:40.569Z,967.64
2019-04-12T06:29:40.561Z,967.66
2019-04-12T06:30:40.552Z,967.69
2019-04-12T06:31:40.543Z,967.7
2019-04-12T06:32:40.532Z,967.62
2019-04-12T06:33:40.522Z,967.64
2019-04-12T06:34:40.514Z,967.68
2019-04-12T06:35:40.505Z,967.66
2019-04-12T06:36:40.494Z,967.68
2019-04-12T06:37:40.486Z,967.65
2019-04-12T06:38:40.476Z,967.61
2019-04-12T06:39:40.482Z,967.7
2019-04-12T06:40:40.458Z,967.63
2019-04-12T06:41:40.450Z,967.67
2019-04-12T06:42:40.440Z,967.64
2019-04-12T06:43:40.429Z,967.63
2019-04-12T06:44:40.421Z,967.64
2019-04-12T06:45:40.411Z,967.64
2019-04-12T06:46:40.401Z,967.64
2019-04-12T06:47:40.392Z,967.61
2019-04-12T06:48:40.383Z,967.58
2019-04-12T06:49:40.375Z,967.61
2019-04-12T06:50:40.365Z,967.62
2019-04-12T06:51:40.355Z,967.59
2019-04-12T06:52:40.346Z,967.62
2019-04-12T06:53:40.338Z,967.58
2019-04-12T06:54:40.328Z,967.6
2019-04-12T06:55:40.318Z,967.58
2019-04-12T06:56:40.309Z,967.54
2019-04-12T06:57:40.299Z,967.55
2019-04-12T06:58:40.351Z,967.58
2019-04-12T06:59:40.283Z,967.6
2019-04-12T07:00:40.274Z,967.59
2019-04-12T07:01:40.263Z,967.6
2019-04-12T07:02:40.255Z,967.62
2019-04-12T07:03:40.246Z,967.61
2019-04-12T07:04:40.236Z,967.63
2019-04-12T07:05:40.226Z,967.59
2019-04-12T07:06:40.219Z,967.61
2019-04-12T07:07:40.209Z,967.55
2019-04-12T07:08:40.199Z,967.58
2019-04-12T07:09:40.190Z,967.52
2019-04-12T07:10:40.182Z,967.58
2019-04-12T07:11:40.173Z,967.55
2019-04-12T07:12:40.162Z,967.55
2019-04-12T07:13:40.154Z,967.53
2019-04-12T07:14:40.144Z,967.51
2019-04-12T07:15:40.136Z,967.56
2019-04-12T07:16:40.125Z,967.5
2019-04-12T07:17:40.118Z,967.51
2019-04-12T07:18:40.109Z,967.48
2019-04-12T07:19:40.098Z,967.53
2019-04-12T07:20:40.090Z,967.49
2019-04-12T07:21:40.080Z,967.51
2019-04-12T07:22:40.072Z,967.51
2019-04-12T07:23:40.063Z,967.49
2019-04-12T07:24:40.054Z,967.46
2019-04-12T07:25:40.048Z,967.47
2019-04-12T07:26:40.037Z,967.48
2019-04-12T07:27:40.029Z,967.47
2019-04-12T07:28:40.019Z,967.52
2019-04-12T07:29:40.009Z,967.49
2019-04-12T07:30:40.001Z,967.52
2019-04-12T07:31:39.993Z,967.5
2019-04-12T07:32:39.988Z,967.48
2019-04-12T07:33:39.974Z,967.5
2019-04-12T07:34:39.964Z,967.53
2019-04-12T07:35:39.968Z,967.51
2019-04-12T07:36:39.948Z,967.52
2019-04-12T07:37:39.940Z,967.52
2019-04-12T07:38:39.928Z,967.46
2019-04-12T07:39:39.925Z,967.5
2019-04-12T07:40:39.912Z,967.48
2019-04-12T07:41:39.903Z,967.46
2019-04-12T07:42:39.893Z,967.45
2019-04-12T07:43:39.886Z,967.45
2019-04-12T07:44:39.875Z,967.46
2019-04-12T07:45:39.906Z,967.45
2019-04-12T07:46:39.857Z,967.52
2019-04-12T07:47:39.848Z,967.51
2019-04-12T07:48:39.840Z,967.53
2019-04-12T07:49:39.830Z,967.49
2019-04-12T07:50:39.822Z,967.52
2019-04-12T07:51:39.813Z,967.49
2019-04-12T07:52:39.803Z,967.56
2019-04-12T07:53:39.794Z,967.57
2019-04-12T07:54:39.789Z,967.5
2019-04-12T07:55:39.777Z,967.55
2019-04-12T07:56:39.775Z,967.61
2019-04-12T07:57:46.717Z,967.63
2019-04-12T07:58:39.751Z,967.62
2019-04-12T07:59:39.740Z,967.58
2019-04-12T08:00:39.733Z,967.6
2019-04-12T08:01:39.724Z,967.57
2019-04-12T08:02:39.717Z,967.62
2019-04-12T08:03:39.706Z,967.6
2019-04-12T08:04:39.697Z,967.6
2019-04-12T08:05:39.688Z,967.61
2019-04-12T08:06:39.681Z,967.6
2019-04-12T08:07:39.673Z,967.56
2019-04-12T08:08:39.662Z,967.56
2019-04-12T08:09:39.953Z,967.56
2019-04-12T08:10:39.644Z,967.56
2019-04-12T08:11:39.636Z,967.57
2019-04-12T08:12:39.627Z,967.56
2019-04-12T08:13:39.618Z,967.58
2019-04-12T08:14:39.608Z,967.53
2019-04-12T08:15:39.600Z,967.52
2019-04-12T08:16:39.592Z,967.54
2019-04-12T08:17:39.583Z,967.55
2019-04-12T08:18:39.573Z,967.53
2019-04-12T08:19:39.567Z,967.55
2019-04-12T08:20:39.557Z,967.52
2019-04-12T08:21:39.550Z,967.52
2019-04-12T08:22:39.541Z,967.49
2019-04-12T08:23:39.546Z,967.55
2019-04-12T08:24:39.522Z,967.51
2019-04-12T08:25:39.513Z,967.52
2019-04-12T08:26:39.505Z,967.56
2019-04-12T08:27:39.496Z,967.51
2019-04-12T08:28:39.488Z,967.53
2019-04-12T08:29:39.483Z,967.54
2019-04-12T08:30:39.471Z,967.56
2019-04-12T08:31:39.462Z,967.58
2019-04-12T08:32:39.455Z,967.52
2019-04-12T08:33:39.445Z,967.51
2019-04-12T08:34:39.436Z,967.53
2019-04-12T08:35:39.428Z,967.54
2019-04-12T08:36:39.429Z,967.56
2019-04-12T08:37:39.413Z,967.53
2019-04-12T08:38:39.402Z,967.52
2019-04-12T08:39:39.394Z,967.52
2019-04-12T08:40:39.384Z,967.53
2019-04-12T08:41:39.376Z,967.55
2019-04-12T08:42:39.368Z,967.51
2019-04-12T08:43:39.358Z,967.49
2019-04-12T08:44:39.351Z,967.5
2019-04-12T08:45:39.345Z,967.49
2019-04-12T08:46:39.349Z,967.49
2019-04-12T08:47:39.325Z,967.49
2019-04-12T08:48:39.372Z,967.5
2019-04-12T08:49:39.312Z,967.48
2019-04-12T08:50:39.322Z,967.5
2019-04-12T08:51:39.311Z,967.51
2019-04-12T08:52:39.304Z,967.54
2019-04-12T08:53:39.287Z,967.54
2019-04-12T08:54:39.265Z,967.56
2019-04-12T08:55:39.300Z,967.52
2019-04-12T08:56:39.288Z,967.57
2019-04-12T08:57:39.282Z,967.51
2019-04-12T08:58:39.265Z,967.54
2019-04-12T08:59:39.274Z,967.54
2019-04-12T09:00:39.736Z,967.51
2019-04-12T09:01:39.208Z,967.51
2019-04-12T09:02:39.211Z,967.52
2019-04-12T09:03:39.253Z,967.54
2019-04-12T09:04:39.267Z,967.55
2019-04-12T09:05:40.782Z,967.53
2019-04-12T09:06:39.171Z,967.53
2019-04-12T09:07:39.261Z,967.54
2019-04-12T09:08:39.250Z,967.52
2019-04-12T09:09:39.141Z,967.53
2019-04-12T09:10:39.212Z,967.48
2019-04-12T09:11:39.152Z,967.5
2019-04-12T09:12:39.190Z,967.52
2019-04-12T09:13:39.110Z,967.51
2019-04-12T09:14:39.193Z,967.49
2019-04-12T09:15:39.187Z,967.5
2019-04-12T09:16:39.197Z,967.45
2019-04-12T09:17:39.087Z,967.46
2019-04-12T09:18:39.073Z,967.48
2019-04-12T09:19:39.161Z,967.46
2019-04-12T09:20:39.111Z,967.47
2019-04-12T09:21:39.119Z,967.45
2019-04-12T09:22:39.134Z,967.5
2019-04-12T09:23:39.168Z,967.44
2019-04-12T09:24:39.018Z,967.43
2019-04-12T09:25:39.045Z,967.42
2019-04-12T09:26:39.042Z,967.43
2019-04-12T09:27:39.021Z,967.41
2019-04-12T09:28:39.071Z,967.44
2019-04-12T09:29:38.975Z,967.43
2019-04-12T09:30:38.967Z,967.47
2019-04-12T09:31:38.958Z,967.43
2019-04-12T09:32:38.961Z,967.43
2019-04-12T09:33:39.008Z,967.41
2019-04-12T09:34:38.935Z,967.41
2019-04-12T09:35:38.925Z,967.42
2019-04-12T09:36:38.917Z,967.45
2019-04-12T09:37:38.914Z,967.44
2019-04-12T09:38:38.900Z,967.39
2019-04-12T09:39:38.891Z,967.38
2019-04-12T09:40:38.883Z,967.42
2019-04-12T09:41:38.876Z,967.45
2019-04-12T09:42:38.865Z,967.43
2019-04-12T09:43:38.859Z,967.4
2019-04-12T09:44:41.592Z,967.37
2019-04-12T09:45:38.841Z,967.39
2019-04-12T09:46:38.833Z,967.38
2019-04-12T09:47:38.827Z,967.34
2019-04-12T09:48:38.818Z,967.4
2019-04-12T09:49:38.809Z,967.4
2019-04-12T09:50:38.806Z,967.36
2019-04-12T09:51:38.792Z,967.4
2019-04-12T09:52:38.810Z,967.34
2019-04-12T09:53:38.928Z,967.33
2019-04-12T09:54:38.767Z,967.31
2019-04-12T09:55:38.760Z,967.34
2019-04-12T09:56:38.753Z,967.33
2019-04-12T09:57:38.743Z,967.37
2019-04-12T09:58:38.734Z,967.38
2019-04-12T09:59:38.728Z,967.34
2019-04-12T10:00:38.717Z,967.32
2019-04-12T10:01:38.711Z,967.4
2019-04-12T10:02:38.702Z,967.37
2019-04-12T10:03:38.694Z,967.35
2019-04-12T10:04:38.685Z,967.41
2019-04-12T10:05:38.677Z,967.33
2019-04-12T10:06:38.670Z,967.31
2019-04-12T10:07:38.660Z,967.36
2019-04-12T10:08:38.655Z,967.36
2019-04-12T10:09:38.645Z,967.32
2019-04-12T10:10:38.637Z,967.33
2019-04-12T10:11:38.630Z,967.34
2019-04-12T10:12:38.620Z,967.33
2019-04-12T10:13:38.613Z,967.33
2019-04-12T10:14:38.609Z,967.29
2019-04-12T10:15:38.595Z,967.25
2019-04-12T10:16:38.592Z,967.35
2019-04-12T10:17:38.579Z,967.27
2019-04-12T10:18:38.572Z,967.25
2019-04-12T10:19:38.567Z,967.23
2019-04-12T10:20:38.554Z,967.23
2019-04-12T10:21:38.547Z,967.23
2019-04-12T10:22:38.538Z,967.25
2019-04-12T10:23:38.530Z,967.23
2019-04-12T10:24:38.525Z,967.21
2019-04-12T10:25:38.515Z,967.23
2019-04-12T10:26:38.505Z,967.25
2019-04-12T10:27:38.498Z,967.25
2019-04-12T10:28:49.316Z,967.19
2019-04-12T10:29:38.481Z,967.17
2019-04-12T10:30:38.473Z,967.23
2019-04-12T10:31:38.467Z,967.19
2019-04-12T10:32:38.460Z,967.14
2019-04-12T10:33:38.451Z,967.23
2019-04-12T10:34:38.443Z,967.17
2019-04-12T10:35:38.433Z,967.14
2019-04-12T10:36:38.425Z,967.17
2019-04-12T10:37:38.418Z,967.08
2019-04-12T10:38:38.409Z,967.1
2019-04-12T10:39:38.401Z,967.12
2019-04-12T10:40:38.393Z,967.16
2019-04-12T10:41:38.386Z,967.12
2019-04-12T10:42:38.380Z,967.09
2019-04-12T10:43:38.368Z,967.09
2019-04-12T10:44:38.363Z,967.07
2019-04-12T10:45:38.353Z,967.1
2019-04-12T10:46:38.345Z,967.13
2019-04-12T10:47:38.336Z,967.12
2019-04-12T10:48:38.332Z,967.08
2019-04-12T10:49:38.320Z,967.02
2019-04-12T10:50:38.312Z,967.07
2019-04-12T10:51:38.305Z,967.01
2019-04-12T10:52:38.299Z,966.98
2019-04-12T10:53:38.288Z,966.98
2019-04-12T10:54:38.280Z,966.97
2019-04-12T10:55:38.271Z,966.99
2019-04-12T10:56:38.267Z,967.05
2019-04-12T10:57:38.258Z,967.06
2019-04-12T10:58:38.256Z,967.06
2019-04-12T10:59:38.240Z,966.99
2019-04-12T11:00:38.233Z,967.01
2019-04-12T11:01:38.227Z,967.01
2019-04-12T11:02:38.216Z,966.99
2019-04-12T11:03:38.207Z,966.98
2019-04-12T11:04:38.201Z,966.95
2019-04-12T11:05:38.193Z,966.93
2019-04-12T11:06:38.184Z,966.93
2019-04-12T11:07:38.176Z,966.95
2019-04-12T11:08:38.168Z,966.97
2019-04-12T11:09:38.161Z,966.98
2019-04-12T11:10:38.152Z,967.03
2019-04-12T11:11:38.144Z,967.01
2019-04-12T11:12:38.143Z,967.01
2019-04-12T11:13:38.128Z,967
2019-04-12T11:14:38.119Z,967.03
2019-04-12T11:15:38.113Z,966.99
2019-04-12T11:16:38.105Z,966.99
2019-04-12T11:17:38.095Z,966.98
2019-04-12T11:18:38.088Z,966.95
2019-04-12T11:19:38.079Z,966.95
2019-04-12T11:20:38.072Z,966.95
2019-04-12T11:21:38.065Z,966.97
2019-04-12T11:22:38.056Z,966.93
2019-04-12T11:23:38.055Z,966.95
2019-04-12T11:24:38.040Z,966.95
2019-04-12T11:25:38.036Z,966.96
2019-04-12T11:26:38.023Z,967
2019-04-12T11:27:38.017Z,966.94
2019-04-12T11:28:38.008Z,966.94
2019-04-12T11:29:38.000Z,966.99
2019-04-12T11:30:37.992Z,966.92
2019-04-12T11:31:37.988Z,966.93
2019-04-12T11:32:37.974Z,966.95
2019-04-12T11:33:37.967Z,966.99
2019-04-12T11:34:37.960Z,967.01
2019-04-12T11:35:37.951Z,967.01
2019-04-12T11:36:37.945Z,966.98
2019-04-12T11:37:37.939Z,966.95
2019-04-12T11:38:37.928Z,966.92
2019-04-12T11:39:37.919Z,966.97
2019-04-12T11:40:37.911Z,966.9
2019-04-12T11:41:37.907Z,966.97
2019-04-12T11:42:37.895Z,966.99
2019-04-12T11:43:37.886Z,966.98
2019-04-12T11:44:37.879Z,966.94
2019-04-12T11:45:37.871Z,966.98
2019-04-12T11:46:37.883Z,966.98
2019-04-12T11:47:37.856Z,967
2019-04-12T11:48:37.847Z,967.01
2019-04-12T11:49:37.840Z,967
2019-04-12T11:50:37.831Z,967
2019-04-12T11:51:37.822Z,966.97
2019-04-12T11:52:37.814Z,967.02
2019-04-12T11:53:37.806Z,967.02
2019-04-12T11:54:37.799Z,966.99
2019-04-12T11:55:37.791Z,967.07
2019-04-12T11:56:37.784Z,967.03
2019-04-12T11:57:38.105Z,967.05
2019-04-12T11:58:47.905Z,967.03
2019-04-12T11:59:37.761Z,967
2019-04-12T12:00:37.752Z,966.99
2019-04-12T12:01:37.747Z,967.04
2019-04-12T12:02:37.735Z,967.04
2019-04-12T12:03:37.728Z,967.05
2019-04-12T12:04:37.719Z,967
2019-04-12T12:05:37.710Z,967.01
2019-04-12T12:06:37.704Z,967
2019-04-12T12:07:49.403Z,967.03
2019-04-12T12:08:37.687Z,967.05
2019-04-12T12:09:37.680Z,967.05
2019-04-12T12:10:37.671Z,967.06
2019-04-12T12:11:37.666Z,967.07
2019-04-12T12:12:37.656Z,967.07
2019-04-12T12:13:37.649Z,967.07
2019-04-12T12:14:37.641Z,967.03
2019-04-12T12:15:37.631Z,967.08
2019-04-12T12:16:37.625Z,967.08
2019-04-12T12:17:37.617Z,967.1
2019-04-12T12:18:37.609Z,967.12
2019-04-12T12:19:37.600Z,967.05
2019-04-12T12:20:37.592Z,967.07
2019-04-12T12:21:37.635Z,967.09
2019-04-12T12:22:37.577Z,967.05
2019-04-12T12:23:37.571Z,967.04
2019-04-12T12:24:37.612Z,967.05
2019-04-12T12:25:37.553Z,967.08
2019-04-12T12:26:37.547Z,967.07
2019-04-12T12:27:37.543Z,967.09
2019-04-12T12:28:37.533Z,967.11
2019-04-12T12:29:42.501Z,967.08
2019-04-12T12:30:37.513Z,967.12
2019-04-12T12:31:37.508Z,967.09